• Join FlightAware (Why Join?)
  • Login
  • US Flag GB Flag 
09:46 EST


 

Airport Tracker/Info


-or-


 

Live Flight TrackerFlight Track Log ✈ EJM685 ✈ 01-Jul-2013 ✈ KTEB - KTTN

Flight Track Log - Related Links

Times and Time Zones

All times are in EDT time to prevent confusion due to time zone crossing. See the EJM685 flight status page for this flight to view local times or setup timezone preferences in your user account.

Time Position Orientation Groundspeed Altitude Reporting Facility
EDT Latitude Longitude Course Direction KTS MPH feet Rate Location/Type
07:12 40.8333 -74.1000 246° West 169 194 1,300  Level New York TRACON
07:13 40.8167 -74.1500 246° West 199 229 1,600 950 Climbing New York TRACON
07:14 40.8167 -74.2500 270° West 256 295 3,200 1,211 Climbing New York TRACON
07:15 40.8000 -74.3333 255° West 260 299 3,900 421 Climbing New York TRACON
07:16 40.7667 -74.4000 237° Southwest 254 292 4,000 50 Climbing New York TRACON
07:17 40.7167 -74.4833 232° Southwest 256 295 4,000  Level New York TRACON
07:18 40.6667 -74.5333 217° Southwest 255 293 4,000  Level New York TRACON
07:19 40.6000 -74.5833 210° Southwest 256 295 4,000  Level New York TRACON
07:20 40.5500 -74.6333 217° Southwest 256 295 4,000  Level New York TRACON
07:22 40.4333 -74.7500 217° Southwest 254 292 4,000  Level Philadelphia TRACON
07:23 40.3833 -74.7833 207° Southwest 201 231 4,000  Level Philadelphia TRACON
07:24 40.3333 -74.8333 217° Southwest 213 245 4,000 -200 Level Philadelphia TRACON
07:25 40.3000 -74.9000 237° Southwest 218 251 3,600 -474 Descending Philadelphia TRACON
07:26 40.2833 -74.9667 252° West 213 245 3,100 -368 Descending Philadelphia TRACON
07:27 40.2333 -75.0000 207° Southwest 193 222 2,900 -350 Descending Philadelphia TRACON
07:28 40.2000 -75.0000 180° South 162 186 2,400 -450 Descending Philadelphia TRACON
07:29 40.1833 -74.9500 114° Southeast 170 196 2,000 -400 Descending Philadelphia TRACON
07:30 40.2167 -74.8833 57° Northeast 180 207 1,600 -600 Descending Philadelphia TRACON
07:31 40.2500 -74.8500 37° Northeast 135 155 800 -800 Descending Philadelphia TRACON
07:33 40.2667 -74.8000 75° East  Level FlightAware Approximate
07:40 40.2767 -74.8135 75° East  Level Estimated